sensor_id;sensor_type;location;lat;lon;timestamp;P1;durP1;ratioP1;P2;durP2;ratioP2
52512;SDS011;38422;53.172;6.974;2024-03-22T00:01:54;17.70;;;13.60;;
52512;SDS011;38422;53.172;6.974;2024-03-22T00:04:20;19.00;;;13.75;;
52512;SDS011;38422;53.172;6.974;2024-03-22T00:06:46;17.13;;;13.13;;
52512;SDS011;38422;53.172;6.974;2024-03-22T00:09:13;18.70;;;13.55;;
52512;SDS011;38422;53.172;6.974;2024-03-22T00:11:39;16.15;;;13.00;;
52512;SDS011;38422;53.172;6.974;2024-03-22T00:14:05;19.13;;;13.90;;
52512;SDS011;38422;53.172;6.974;2024-03-22T00:16:32;18.15;;;13.27;;
52512;SDS011;38422;53.172;6.974;2024-03-22T00:18:58;18.60;;;12.90;;
52512;SDS011;38422;53.172;6.974;2024-03-22T00:21:24;17.80;;;13.63;;
52512;SDS011;38422;53.172;6.974;2024-03-22T00:23:50;17.27;;;13.43;;
52512;SDS011;38422;53.172;6.974;2024-03-22T00:26:15;18.27;;;13.45;;
52512;SDS011;38422;53.172;6.974;2024-03-22T00:28:41;17.98;;;14.13;;
52512;SDS011;38422;53.172;6.974;2024-03-22T00:31:07;18.67;;;13.70;;
52512;SDS011;38422;53.172;6.974;2024-03-22T00:33:34;18.55;;;14.00;;
52512;SDS011;38422;53.172;6.974;2024-03-22T00:35:59;19.42;;;13.88;;
52512;SDS011;38422;53.172;6.974;2024-03-22T00:38:25;20.98;;;15.20;;
52512;SDS011;38422;53.172;6.974;2024-03-22T00:40:51;21.00;;;14.80;;
52512;SDS011;38422;53.172;6.974;2024-03-22T00:43:16;20.88;;;14.82;;
52512;SDS011;38422;53.172;6.974;2024-03-22T00:45:42;22.10;;;15.20;;
52512;SDS011;38422;53.172;6.974;2024-03-22T00:48:08;20.30;;;14.45;;
52512;SDS011;38422;53.172;6.974;2024-03-22T00:50:34;23.25;;;14.93;;
52512;SDS011;38422;53.172;6.974;2024-03-22T00:52:59;19.80;;;14.68;;
52512;SDS011;38422;53.172;6.974;2024-03-22T00:55:27;22.60;;;15.13;;
52512;SDS011;38422;53.172;6.974;2024-03-22T00:57:53;22.33;;;15.57;;
52512;SDS011;38422;53.172;6.974;2024-03-22T01:00:19;22.75;;;15.95;;
52512;SDS011;38422;53.172;6.974;2024-03-22T01:02:45;24.30;;;16.80;;
52512;SDS011;38422;53.172;6.974;2024-03-22T01:05:10;23.48;;;16.05;;
52512;SDS011;38422;53.172;6.974;2024-03-22T01:07:36;24.27;;;17.42;;
52512;SDS011;38422;53.172;6.974;2024-03-22T01:10:03;22.92;;;16.60;;
52512;SDS011;38422;53.172;6.974;2024-03-22T01:12:29;27.60;;;18.08;;
52512;SDS011;38422;53.172;6.974;2024-03-22T01:14:56;19.75;;;14.18;;
52512;SDS011;38422;53.172;6.974;2024-03-22T01:17:22;23.33;;;15.25;;
52512;SDS011;38422;53.172;6.974;2024-03-22T01:19:47;22.38;;;16.33;;
52512;SDS011;38422;53.172;6.974;2024-03-22T01:22:13;25.75;;;18.30;;
52512;SDS011;38422;53.172;6.974;2024-03-22T01:24:39;25.77;;;17.17;;
52512;SDS011;38422;53.172;6.974;2024-03-22T01:27:04;26.00;;;18.17;;
52512;SDS011;38422;53.172;6.974;2024-03-22T01:29:30;28.23;;;18.27;;
52512;SDS011;38422;53.172;6.974;2024-03-22T01:31:59;27.45;;;18.00;;
52512;SDS011;38422;53.172;6.974;2024-03-22T01:34:25;26.13;;;17.65;;
52512;SDS011;38422;53.172;6.974;2024-03-22T01:36:51;28.48;;;18.83;;
52512;SDS011;38422;53.172;6.974;2024-03-22T01:39:18;27.83;;;19.13;;
52512;SDS011;38422;53.172;6.974;2024-03-22T01:41:46;30.30;;;20.33;;
52512;SDS011;38422;53.172;6.974;2024-03-22T01:44:12;31.73;;;19.80;;
52512;SDS011;38422;53.172;6.974;2024-03-22T01:46:39;30.80;;;20.25;;
52512;SDS011;38422;53.172;6.974;2024-03-22T01:49:05;27.45;;;18.35;;
52512;SDS011;38422;53.172;6.974;2024-03-22T01:51:32;31.00;;;20.05;;
52512;SDS011;38422;53.172;6.974;2024-03-22T01:53:58;27.85;;;19.45;;
52512;SDS011;38422;53.172;6.974;2024-03-22T01:56:29;29.20;;;19.48;;
52512;SDS011;38422;53.172;6.974;2024-03-22T01:58:55;30.02;;;20.63;;
52512;SDS011;38422;53.172;6.974;2024-03-22T02:01:22;29.10;;;19.73;;
52512;SDS011;38422;53.172;6.974;2024-03-22T02:03:48;28.00;;;19.58;;
52512;SDS011;38422;53.172;6.974;2024-03-22T02:06:14;29.23;;;20.38;;
52512;SDS011;38422;53.172;6.974;2024-03-22T02:08:40;31.85;;;20.25;;
52512;SDS011;38422;53.172;6.974;2024-03-22T02:11:07;32.55;;;21.55;;
52512;SDS011;38422;53.172;6.974;2024-03-22T02:13:34;32.05;;;22.20;;
52512;SDS011;38422;53.172;6.974;2024-03-22T02:16:02;30.20;;;20.02;;
52512;SDS011;38422;53.172;6.974;2024-03-22T02:18:28;30.70;;;20.40;;
52512;SDS011;38422;53.172;6.974;2024-03-22T02:20:54;33.88;;;21.60;;
52512;SDS011;38422;53.172;6.974;2024-03-22T02:23:26;29.20;;;20.67;;
52512;SDS011;38422;53.172;6.974;2024-03-22T02:25:59;30.95;;;21.05;;
52512;SDS011;38422;53.172;6.974;2024-03-22T02:28:25;34.95;;;22.48;;
52512;SDS011;38422;53.172;6.974;2024-03-22T02:30:51;31.67;;;21.45;;
52512;SDS011;38422;53.172;6.974;2024-03-22T02:33:17;35.35;;;22.23;;
52512;SDS011;38422;53.172;6.974;2024-03-22T02:35:42;30.42;;;20.27;;
52512;SDS011;38422;53.172;6.974;2024-03-22T02:38:08;32.92;;;21.70;;
52512;SDS011;38422;53.172;6.974;2024-03-22T02:40:34;33.47;;;22.33;;
52512;SDS011;38422;53.172;6.974;2024-03-22T02:43:00;34.83;;;21.75;;
52512;SDS011;38422;53.172;6.974;2024-03-22T02:45:26;34.47;;;21.90;;
52512;SDS011;38422;53.172;6.974;2024-03-22T02:47:52;30.60;;;19.25;;
52512;SDS011;38422;53.172;6.974;2024-03-22T02:50:17;36.65;;;23.30;;
52512;SDS011;38422;53.172;6.974;2024-03-22T02:52:43;31.65;;;20.88;;
52512;SDS011;38422;53.172;6.974;2024-03-22T02:55:08;34.20;;;22.40;;
52512;SDS011;38422;53.172;6.974;2024-03-22T02:57:34;35.20;;;23.27;;
52512;SDS011;38422;53.172;6.974;2024-03-22T03:00:00;35.90;;;23.70;;
52512;SDS011;38422;53.172;6.974;2024-03-22T03:02:26;35.38;;;22.48;;
52512;SDS011;38422;53.172;6.974;2024-03-22T03:04:51;37.05;;;23.85;;
52512;SDS011;38422;53.172;6.974;2024-03-22T03:07:17;35.75;;;22.70;;
52512;SDS011;38422;53.172;6.974;2024-03-22T03:09:42;32.38;;;22.58;;
52512;SDS011;38422;53.172;6.974;2024-03-22T03:12:08;35.55;;;23.60;;
52512;SDS011;38422;53.172;6.974;2024-03-22T03:14:34;35.05;;;23.02;;
52512;SDS011;38422;53.172;6.974;2024-03-22T03:16:59;37.90;;;23.85;;
52512;SDS011;38422;53.172;6.974;2024-03-22T03:19:25;37.88;;;24.42;;
52512;SDS011;38422;53.172;6.974;2024-03-22T03:21:51;36.85;;;23.38;;
52512;SDS011;38422;53.172;6.974;2024-03-22T03:24:16;36.58;;;22.98;;
52512;SDS011;38422;53.172;6.974;2024-03-22T03:26:42;37.03;;;23.92;;
52512;SDS011;38422;53.172;6.974;2024-03-22T03:29:08;38.67;;;24.67;;
52512;SDS011;38422;53.172;6.974;2024-03-22T03:31:33;34.83;;;23.90;;
52512;SDS011;38422;53.172;6.974;2024-03-22T03:33:59;37.03;;;25.15;;
52512;SDS011;38422;53.172;6.974;2024-03-22T03:36:25;38.22;;;25.38;;
52512;SDS011;38422;53.172;6.974;2024-03-22T03:38:51;38.22;;;23.85;;
52512;SDS011;38422;53.172;6.974;2024-03-22T03:41:16;38.58;;;24.65;;
52512;SDS011;38422;53.172;6.974;2024-03-22T03:43:42;37.70;;;24.08;;
52512;SDS011;38422;53.172;6.974;2024-03-22T03:46:08;38.92;;;24.13;;
52512;SDS011;38422;53.172;6.974;2024-03-22T03:48:33;39.28;;;25.25;;
52512;SDS011;38422;53.172;6.974;2024-03-22T03:50:59;38.33;;;25.27;;
52512;SDS011;38422;53.172;6.974;2024-03-22T03:53:28;40.45;;;24.33;;
52512;SDS011;38422;53.172;6.974;2024-03-22T03:55:54;40.30;;;25.30;;
52512;SDS011;38422;53.172;6.974;2024-03-22T03:58:20;40.55;;;25.13;;
52512;SDS011;38422;53.172;6.974;2024-03-22T04:00:46;41.20;;;26.02;;
52512;SDS011;38422;53.172;6.974;2024-03-22T04:03:11;38.78;;;24.80;;
52512;SDS011;38422;53.172;6.974;2024-03-22T04:05:37;41.00;;;24.92;;
52512;SDS011;38422;53.172;6.974;2024-03-22T04:08:03;38.35;;;24.63;;
52512;SDS011;38422;53.172;6.974;2024-03-22T04:10:29;38.90;;;23.85;;
52512;SDS011;38422;53.172;6.974;2024-03-22T04:12:54;39.63;;;25.13;;
52512;SDS011;38422;53.172;6.974;2024-03-22T04:15:20;39.22;;;24.10;;
52512;SDS011;38422;53.172;6.974;2024-03-22T04:17:46;40.50;;;25.02;;
52512;SDS011;38422;53.172;6.974;2024-03-22T04:20:11;39.45;;;24.17;;
52512;SDS011;38422;53.172;6.974;2024-03-22T04:22:37;40.25;;;25.70;;
52512;SDS011;38422;53.172;6.974;2024-03-22T04:25:03;38.88;;;25.27;;
52512;SDS011;38422;53.172;6.974;2024-03-22T04:27:29;39.45;;;25.40;;
52512;SDS011;38422;53.172;6.974;2024-03-22T04:29:55;42.25;;;26.35;;
52512;SDS011;38422;53.172;6.974;2024-03-22T04:32:20;40.10;;;24.50;;
52512;SDS011;38422;53.172;6.974;2024-03-22T04:34:46;39.97;;;25.55;;
52512;SDS011;38422;53.172;6.974;2024-03-22T04:37:12;39.53;;;24.13;;
52512;SDS011;38422;53.172;6.974;2024-03-22T04:39:38;41.17;;;25.85;;
52512;SDS011;38422;53.172;6.974;2024-03-22T04:42:05;40.80;;;24.38;;
52512;SDS011;38422;53.172;6.974;2024-03-22T04:44:30;41.42;;;23.15;;
52512;SDS011;38422;53.172;6.974;2024-03-22T04:46:56;42.65;;;26.38;;
52512;SDS011;38422;53.172;6.974;2024-03-22T04:49:22;43.33;;;26.05;;
52512;SDS011;38422;53.172;6.974;2024-03-22T04:51:48;39.78;;;24.30;;
52512;SDS011;38422;53.172;6.974;2024-03-22T04:54:14;42.13;;;24.60;;
52512;SDS011;38422;53.172;6.974;2024-03-22T04:56:39;43.35;;;25.50;;
52512;SDS011;38422;53.172;6.974;2024-03-22T04:59:05;39.60;;;24.02;;
52512;SDS011;38422;53.172;6.974;2024-03-22T05:01:31;40.05;;;25.23;;
52512;SDS011;38422;53.172;6.974;2024-03-22T05:03:57;40.40;;;23.55;;
52512;SDS011;38422;53.172;6.974;2024-03-22T05:06:22;39.97;;;22.30;;
52512;SDS011;38422;53.172;6.974;2024-03-22T05:08:48;39.80;;;22.52;;
52512;SDS011;38422;53.172;6.974;2024-03-22T05:11:14;39.55;;;22.05;;
52512;SDS011;38422;53.172;6.974;2024-03-22T05:13:39;41.92;;;21.95;;
52512;SDS011;38422;53.172;6.974;2024-03-22T05:16:05;36.47;;;21.85;;
52512;SDS011;38422;53.172;6.974;2024-03-22T05:18:32;39.72;;;22.33;;
52512;SDS011;38422;53.172;6.974;2024-03-22T05:20:57;37.80;;;21.65;;
52512;SDS011;38422;53.172;6.974;2024-03-22T05:23:23;42.90;;;22.30;;
52512;SDS011;38422;53.172;6.974;2024-03-22T05:25:49;37.72;;;21.92;;
52512;SDS011;38422;53.172;6.974;2024-03-22T05:28:14;37.88;;;20.35;;
52512;SDS011;38422;53.172;6.974;2024-03-22T05:30:40;36.00;;;20.05;;
52512;SDS011;38422;53.172;6.974;2024-03-22T05:33:06;35.50;;;20.83;;
52512;SDS011;38422;53.172;6.974;2024-03-22T05:35:31;37.25;;;20.20;;
52512;SDS011;38422;53.172;6.974;2024-03-22T05:37:57;36.28;;;19.27;;
52512;SDS011;38422;53.172;6.974;2024-03-22T05:40:23;35.95;;;19.92;;
52512;SDS011;38422;53.172;6.974;2024-03-22T05:42:48;36.85;;;19.80;;
52512;SDS011;38422;53.172;6.974;2024-03-22T05:45:14;36.70;;;18.05;;
52512;SDS011;38422;53.172;6.974;2024-03-22T05:47:40;36.65;;;19.15;;
52512;SDS011;38422;53.172;6.974;2024-03-22T05:50:05;32.55;;;18.50;;
52512;SDS011;38422;53.172;6.974;2024-03-22T05:52:33;34.72;;;19.38;;
52512;SDS011;38422;53.172;6.974;2024-03-22T05:54:59;35.42;;;19.63;;
52512;SDS011;38422;53.172;6.974;2024-03-22T05:57:25;35.97;;;18.75;;
52512;SDS011;38422;53.172;6.974;2024-03-22T05:59:50;31.83;;;18.58;;
52512;SDS011;38422;53.172;6.974;2024-03-22T06:04:43;37.97;;;18.83;;
52512;SDS011;38422;53.172;6.974;2024-03-22T06:07:10;32.38;;;17.90;;
52512;SDS011;38422;53.172;6.974;2024-03-22T06:09:35;34.35;;;17.92;;
52512;SDS011;38422;53.172;6.974;2024-03-22T06:14:43;34.72;;;17.83;;
52512;SDS011;38422;53.172;6.974;2024-03-22T06:17:09;30.02;;;16.85;;
52512;SDS011;38422;53.172;6.974;2024-03-22T06:19:35;31.55;;;16.30;;
52512;SDS011;38422;53.172;6.974;2024-03-22T06:22:02;32.42;;;17.17;;
52512;SDS011;38422;53.172;6.974;2024-03-22T06:24:28;33.25;;;16.55;;
52512;SDS011;38422;53.172;6.974;2024-03-22T06:26:54;30.63;;;16.75;;
52512;SDS011;38422;53.172;6.974;2024-03-22T06:29:19;28.95;;;14.85;;
52512;SDS011;38422;53.172;6.974;2024-03-22T06:31:46;30.45;;;16.35;;
52512;SDS011;38422;53.172;6.974;2024-03-22T06:34:12;28.00;;;15.45;;
52512;SDS011;38422;53.172;6.974;2024-03-22T06:36:37;26.35;;;12.13;;
52512;SDS011;38422;53.172;6.974;2024-03-22T06:39:03;25.08;;;12.52;;
52512;SDS011;38422;53.172;6.974;2024-03-22T06:41:32;23.27;;;12.30;;
52512;SDS011;38422;53.172;6.974;2024-03-22T06:43:58;23.90;;;12.25;;
52512;SDS011;38422;53.172;6.974;2024-03-22T06:46:23;22.70;;;11.13;;
52512;SDS011;38422;53.172;6.974;2024-03-22T06:48:49;21.50;;;11.32;;
52512;SDS011;38422;53.172;6.974;2024-03-22T06:51:15;25.95;;;11.30;;
52512;SDS011;38422;53.172;6.974;2024-03-22T06:53:41;22.67;;;12.13;;
52512;SDS011;38422;53.172;6.974;2024-03-22T06:56:07;26.00;;;12.30;;
52512;SDS011;38422;53.172;6.974;2024-03-22T06:58:36;25.55;;;11.85;;
52512;SDS011;38422;53.172;6.974;2024-03-22T07:01:03;23.42;;;11.35;;
52512;SDS011;38422;53.172;6.974;2024-03-22T07:03:29;23.90;;;10.88;;
52512;SDS011;38422;53.172;6.974;2024-03-22T07:05:55;22.67;;;11.43;;
52512;SDS011;38422;53.172;6.974;2024-03-22T07:08:21;20.38;;;11.00;;
52512;SDS011;38422;53.172;6.974;2024-03-22T07:10:46;22.73;;;10.98;;
52512;SDS011;38422;53.172;6.974;2024-03-22T07:13:12;21.25;;;10.18;;
52512;SDS011;38422;53.172;6.974;2024-03-22T07:15:37;20.17;;;8.90;;
52512;SDS011;38422;53.172;6.974;2024-03-22T07:18:03;20.30;;;10.82;;
52512;SDS011;38422;53.172;6.974;2024-03-22T07:20:30;21.55;;;9.80;;
52512;SDS011;38422;53.172;6.974;2024-03-22T07:22:56;21.33;;;10.65;;
52512;SDS011;38422;53.172;6.974;2024-03-22T07:25:22;19.35;;;10.02;;
52512;SDS011;38422;53.172;6.974;2024-03-22T07:27:47;19.10;;;10.20;;
52512;SDS011;38422;53.172;6.974;2024-03-22T07:30:14;19.13;;;9.87;;
52512;SDS011;38422;53.172;6.974;2024-03-22T07:32:40;20.92;;;10.55;;
52512;SDS011;38422;53.172;6.974;2024-03-22T07:35:05;20.67;;;10.00;;
52512;SDS011;38422;53.172;6.974;2024-03-22T07:37:32;19.63;;;10.38;;
52512;SDS011;38422;53.172;6.974;2024-03-22T07:40:00;21.27;;;10.45;;
52512;SDS011;38422;53.172;6.974;2024-03-22T07:42:27;19.52;;;9.55;;
52512;SDS011;38422;53.172;6.974;2024-03-22T07:44:52;21.25;;;9.85;;
52512;SDS011;38422;53.172;6.974;2024-03-22T07:47:18;19.88;;;9.63;;
52512;SDS011;38422;53.172;6.974;2024-03-22T07:49:44;15.85;;;8.40;;
52512;SDS011;38422;53.172;6.974;2024-03-22T07:52:10;17.75;;;8.60;;
52512;SDS011;38422;53.172;6.974;2024-03-22T07:54:36;14.93;;;7.97;;
52512;SDS011;38422;53.172;6.974;2024-03-22T07:57:01;18.17;;;8.63;;
52512;SDS011;38422;53.172;6.974;2024-03-22T07:59:27;15.27;;;8.07;;
52512;SDS011;38422;53.172;6.974;2024-03-22T08:01:53;16.42;;;7.78;;
52512;SDS011;38422;53.172;6.974;2024-03-22T08:04:19;15.20;;;7.70;;
52512;SDS011;38422;53.172;6.974;2024-03-22T08:06:45;15.50;;;7.35;;
52512;SDS011;38422;53.172;6.974;2024-03-22T08:09:11;13.55;;;7.80;;
52512;SDS011;38422;53.172;6.974;2024-03-22T08:11:36;17.83;;;8.23;;
52512;SDS011;38422;53.172;6.974;2024-03-22T08:14:02;16.88;;;8.20;;
52512;SDS011;38422;53.172;6.974;2024-03-22T08:16:31;14.02;;;7.70;;
52512;SDS011;38422;53.172;6.974;2024-03-22T08:18:57;16.23;;;7.60;;
52512;SDS011;38422;53.172;6.974;2024-03-22T08:21:23;16.08;;;7.95;;
52512;SDS011;38422;53.172;6.974;2024-03-22T08:23:50;14.15;;;8.00;;
52512;SDS011;38422;53.172;6.974;2024-03-22T08:26:16;18.75;;;8.35;;
52512;SDS011;38422;53.172;6.974;2024-03-22T08:28:42;15.32;;;7.45;;
52512;SDS011;38422;53.172;6.974;2024-03-22T08:31:07;15.77;;;7.28;;
52512;SDS011;38422;53.172;6.974;2024-03-22T08:33:33;16.35;;;7.25;;
52512;SDS011;38422;53.172;6.974;2024-03-22T08:35:59;14.73;;;6.95;;
52512;SDS011;38422;53.172;6.974;2024-03-22T08:38:26;13.95;;;7.55;;
52512;SDS011;38422;53.172;6.974;2024-03-22T08:40:52;15.48;;;7.13;;
52512;SDS011;38422;53.172;6.974;2024-03-22T08:43:18;12.70;;;6.65;;
52512;SDS011;38422;53.172;6.974;2024-03-22T08:45:43;11.27;;;6.20;;
52512;SDS011;38422;53.172;6.974;2024-03-22T08:48:09;13.68;;;6.75;;
52512;SDS011;38422;53.172;6.974;2024-03-22T08:50:35;12.55;;;6.57;;
52512;SDS011;38422;53.172;6.974;2024-03-22T08:53:00;15.52;;;6.82;;
52512;SDS011;38422;53.172;6.974;2024-03-22T08:55:29;12.32;;;6.03;;
52512;SDS011;38422;53.172;6.974;2024-03-22T08:57:55;12.55;;;6.13;;
52512;SDS011;38422;53.172;6.974;2024-03-22T09:00:21;11.35;;;5.88;;
52512;SDS011;38422;53.172;6.974;2024-03-22T09:02:46;13.13;;;6.25;;
52512;SDS011;38422;53.172;6.974;2024-03-22T09:05:12;11.50;;;5.90;;
52512;SDS011;38422;53.172;6.974;2024-03-22T09:07:38;10.27;;;5.15;;
52512;SDS011;38422;53.172;6.974;2024-03-22T09:10:04;9.25;;;4.30;;
52512;SDS011;38422;53.172;6.974;2024-03-22T09:12:31;8.93;;;4.38;;
52512;SDS011;38422;53.172;6.974;2024-03-22T09:14:57;9.23;;;4.53;;
52512;SDS011;38422;53.172;6.974;2024-03-22T09:17:23;10.80;;;4.63;;
52512;SDS011;38422;53.172;6.974;2024-03-22T09:19:48;7.28;;;3.50;;
52512;SDS011;38422;53.172;6.974;2024-03-22T09:22:14;6.75;;;3.50;;
52512;SDS011;38422;53.172;6.974;2024-03-22T09:24:42;6.00;;;3.47;;
52512;SDS011;38422;53.172;6.974;2024-03-22T09:27:08;8.80;;;4.10;;
52512;SDS011;38422;53.172;6.974;2024-03-22T09:29:38;6.70;;;3.60;;
52512;SDS011;38422;53.172;6.974;2024-03-22T09:32:04;7.30;;;3.88;;
52512;SDS011;38422;53.172;6.974;2024-03-22T09:34:30;7.20;;;3.30;;
52512;SDS011;38422;53.172;6.974;2024-03-22T09:36:56;7.10;;;3.40;;
52512;SDS011;38422;53.172;6.974;2024-03-22T09:39:22;6.68;;;3.28;;
52512;SDS011;38422;53.172;6.974;2024-03-22T09:41:48;7.03;;;3.47;;
52512;SDS011;38422;53.172;6.974;2024-03-22T09:44:17;6.05;;;2.90;;
52512;SDS011;38422;53.172;6.974;2024-03-22T09:46:47;6.93;;;4.07;;
52512;SDS011;38422;53.172;6.974;2024-03-22T09:49:13;7.53;;;4.28;;
52512;SDS011;38422;53.172;6.974;2024-03-22T09:51:39;7.28;;;4.22;;
52512;SDS011;38422;53.172;6.974;2024-03-22T09:54:08;8.05;;;3.70;;
52512;SDS011;38422;53.172;6.974;2024-03-22T09:56:34;5.63;;;3.58;;
52512;SDS011;38422;53.172;6.974;2024-03-22T09:59:01;7.07;;;3.35;;
52512;SDS011;38422;53.172;6.974;2024-03-22T10:01:27;5.95;;;3.20;;
52512;SDS011;38422;53.172;6.974;2024-03-22T10:03:54;5.30;;;3.00;;
52512;SDS011;38422;53.172;6.974;2024-03-22T10:06:20;6.13;;;3.00;;
52512;SDS011;38422;53.172;6.974;2024-03-22T10:08:46;4.72;;;2.70;;
52512;SDS011;38422;53.172;6.974;2024-03-22T10:11:12;4.25;;;2.38;;
52512;SDS011;38422;53.172;6.974;2024-03-22T10:13:38;4.47;;;2.85;;
52512;SDS011;38422;53.172;6.974;2024-03-22T10:16:04;5.35;;;3.03;;
52512;SDS011;38422;53.172;6.974;2024-03-22T10:18:32;4.55;;;2.90;;
52512;SDS011;38422;53.172;6.974;2024-03-22T10:21:02;4.57;;;2.67;;
52512;SDS011;38422;53.172;6.974;2024-03-22T10:23:31;5.15;;;2.80;;
52512;SDS011;38422;53.172;6.974;2024-03-22T10:25:57;4.90;;;2.60;;
52512;SDS011;38422;53.172;6.974;2024-03-22T10:28:24;4.07;;;2.45;;
52512;SDS011;38422;53.172;6.974;2024-03-22T10:30:50;3.67;;;2.22;;
52512;SDS011;38422;53.172;6.974;2024-03-22T10:33:20;4.20;;;2.53;;
52512;SDS011;38422;53.172;6.974;2024-03-22T10:35:51;4.25;;;2.53;;
52512;SDS011;38422;53.172;6.974;2024-03-22T10:38:19;3.55;;;2.28;;
52512;SDS011;38422;53.172;6.974;2024-03-22T10:40:45;4.30;;;2.17;;
52512;SDS011;38422;53.172;6.974;2024-03-22T10:43:12;3.73;;;2.23;;
52512;SDS011;38422;53.172;6.974;2024-03-22T10:45:41;4.97;;;2.40;;
52512;SDS011;38422;53.172;6.974;2024-03-22T10:48:10;4.15;;;2.10;;
52512;SDS011;38422;53.172;6.974;2024-03-22T10:50:40;3.97;;;2.15;;
52512;SDS011;38422;53.172;6.974;2024-03-22T10:53:16;3.15;;;1.80;;
52512;SDS011;38422;53.172;6.974;2024-03-22T10:55:49;2.78;;;1.77;;
52512;SDS011;38422;53.172;6.974;2024-03-22T10:58:25;2.58;;;1.60;;
52512;SDS011;38422;53.172;6.974;2024-03-22T11:00:52;3.05;;;1.80;;
52512;SDS011;38422;53.172;6.974;2024-03-22T11:03:22;2.42;;;1.38;;
52512;SDS011;38422;53.172;6.974;2024-03-22T11:05:50;3.53;;;1.90;;
52512;SDS011;38422;53.172;6.974;2024-03-22T11:08:29;2.97;;;1.70;;
52512;SDS011;38422;53.172;6.974;2024-03-22T11:11:08;2.95;;;1.55;;
52512;SDS011;38422;53.172;6.974;2024-03-22T11:13:35;2.53;;;1.50;;
52512;SDS011;38422;53.172;6.974;2024-03-22T11:16:02;2.50;;;1.50;;
52512;SDS011;38422;53.172;6.974;2024-03-22T11:18:27;2.70;;;1.60;;
52512;SDS011;38422;53.172;6.974;2024-03-22T11:20:53;2.63;;;1.60;;
52512;SDS011;38422;53.172;6.974;2024-03-22T11:23:19;2.60;;;1.40;;
52512;SDS011;38422;53.172;6.974;2024-03-22T11:25:45;2.80;;;1.50;;
52512;SDS011;38422;53.172;6.974;2024-03-22T11:28:11;2.90;;;1.50;;
52512;SDS011;38422;53.172;6.974;2024-03-22T11:30:37;2.83;;;1.42;;
52512;SDS011;38422;53.172;6.974;2024-03-22T11:33:04;1.85;;;1.10;;
52512;SDS011;38422;53.172;6.974;2024-03-22T11:35:33;2.70;;;1.27;;
52512;SDS011;38422;53.172;6.974;2024-03-22T11:37:59;2.42;;;1.33;;
52512;SDS011;38422;53.172;6.974;2024-03-22T11:40:25;1.83;;;1.17;;
52512;SDS011;38422;53.172;6.974;2024-03-22T11:42:52;2.33;;;1.17;;
52512;SDS011;38422;53.172;6.974;2024-03-22T11:45:19;2.03;;;1.20;;
52512;SDS011;38422;53.172;6.974;2024-03-22T11:47:46;1.00;;;0.90;;
52512;SDS011;38422;53.172;6.974;2024-03-22T11:50:12;1.80;;;0.90;;
52512;SDS011;38422;53.172;6.974;2024-03-22T11:52:42;1.40;;;0.90;;
52512;SDS011;38422;53.172;6.974;2024-03-22T11:55:11;1.55;;;1.20;;
52512;SDS011;38422;53.172;6.974;2024-03-22T11:57:37;2.75;;;1.00;;
52512;SDS011;38422;53.172;6.974;2024-03-22T12:00:03;1.75;;;0.80;;
52512;SDS011;38422;53.172;6.974;2024-03-22T12:02:35;1.58;;;0.95;;
52512;SDS011;38422;53.172;6.974;2024-03-22T12:05:01;3.03;;;0.98;;
52512;SDS011;38422;53.172;6.974;2024-03-22T12:07:28;1.58;;;1.05;;
52512;SDS011;38422;53.172;6.974;2024-03-22T12:09:54;2.37;;;0.80;;
52512;SDS011;38422;53.172;6.974;2024-03-22T12:12:21;1.52;;;0.90;;
52512;SDS011;38422;53.172;6.974;2024-03-22T12:14:47;1.20;;;0.85;;
52512;SDS011;38422;53.172;6.974;2024-03-22T12:17:16;2.83;;;1.10;;
52512;SDS011;38422;53.172;6.974;2024-03-22T12:19:42;1.95;;;0.90;;
52512;SDS011;38422;53.172;6.974;2024-03-22T12:22:07;1.63;;;0.82;;
52512;SDS011;38422;53.172;6.974;2024-03-22T12:24:33;2.08;;;0.90;;
52512;SDS011;38422;53.172;6.974;2024-03-22T12:26:58;1.02;;;0.70;;
52512;SDS011;38422;53.172;6.974;2024-03-22T12:29:24;2.50;;;0.82;;
52512;SDS011;38422;53.172;6.974;2024-03-22T12:31:50;0.73;;;0.50;;
52512;SDS011;38422;53.172;6.974;2024-03-22T12:34:16;1.37;;;0.50;;
52512;SDS011;38422;53.172;6.974;2024-03-22T12:36:42;1.40;;;0.60;;
52512;SDS011;38422;53.172;6.974;2024-03-22T12:39:08;0.77;;;0.40;;
52512;SDS011;38422;53.172;6.974;2024-03-22T12:41:34;0.90;;;0.50;;
52512;SDS011;38422;53.172;6.974;2024-03-22T12:44:00;1.70;;;0.60;;
52512;SDS011;38422;53.172;6.974;2024-03-22T12:46:26;2.50;;;0.60;;
52512;SDS011;38422;53.172;6.974;2024-03-22T12:48:52;1.10;;;0.65;;
52512;SDS011;38422;53.172;6.974;2024-03-22T12:51:19;1.57;;;0.90;;
52512;SDS011;38422;53.172;6.974;2024-03-22T12:53:45;3.08;;;0.80;;
52512;SDS011;38422;53.172;6.974;2024-03-22T12:56:11;2.03;;;0.80;;
52512;SDS011;38422;53.172;6.974;2024-03-22T12:58:36;2.08;;;0.73;;
52512;SDS011;38422;53.172;6.974;2024-03-22T13:01:02;2.88;;;0.98;;
52512;SDS011;38422;53.172;6.974;2024-03-22T13:03:30;2.83;;;1.20;;
52512;SDS011;38422;53.172;6.974;2024-03-22T13:05:59;1.50;;;0.75;;
52512;SDS011;38422;53.172;6.974;2024-03-22T13:08:25;2.30;;;1.10;;
52512;SDS011;38422;53.172;6.974;2024-03-22T13:10:50;3.28;;;1.20;;
52512;SDS011;38422;53.172;6.974;2024-03-22T13:13:17;2.58;;;1.10;;
52512;SDS011;38422;53.172;6.974;2024-03-22T13:15:43;1.90;;;1.00;;
52512;SDS011;38422;53.172;6.974;2024-03-22T13:18:12;3.00;;;1.50;;
52512;SDS011;38422;53.172;6.974;2024-03-22T13:20:38;3.22;;;1.23;;
52512;SDS011;38422;53.172;6.974;2024-03-22T13:23:04;3.42;;;1.35;;
52512;SDS011;38422;53.172;6.974;2024-03-22T13:25:30;2.28;;;1.30;;
52512;SDS011;38422;53.172;6.974;2024-03-22T13:27:56;3.78;;;1.48;;
52512;SDS011;38422;53.172;6.974;2024-03-22T13:30:22;3.15;;;1.65;;
52512;SDS011;38422;53.172;6.974;2024-03-22T13:32:48;4.00;;;1.80;;
52512;SDS011;38422;53.172;6.974;2024-03-22T13:35:14;4.60;;;1.80;;
52512;SDS011;38422;53.172;6.974;2024-03-22T13:37:42;3.30;;;1.50;;
52512;SDS011;38422;53.172;6.974;2024-03-22T13:40:08;5.45;;;1.95;;
52512;SDS011;38422;53.172;6.974;2024-03-22T13:42:34;3.88;;;1.60;;
52512;SDS011;38422;53.172;6.974;2024-03-22T13:45:00;5.05;;;1.80;;
52512;SDS011;38422;53.172;6.974;2024-03-22T13:47:26;5.07;;;1.80;;
52512;SDS011;38422;53.172;6.974;2024-03-22T13:49:55;6.50;;;1.90;;
52512;SDS011;38422;53.172;6.974;2024-03-22T13:52:21;7.35;;;1.90;;
52512;SDS011;38422;53.172;6.974;2024-03-22T13:54:46;6.07;;;1.80;;
52512;SDS011;38422;53.172;6.974;2024-03-22T13:57:12;7.05;;;1.95;;
52512;SDS011;38422;53.172;6.974;2024-03-22T13:59:38;6.38;;;2.00;;
52512;SDS011;38422;53.172;6.974;2024-03-22T14:02:05;9.13;;;2.13;;
52512;SDS011;38422;53.172;6.974;2024-03-22T14:04:32;7.32;;;2.05;;
52512;SDS011;38422;53.172;6.974;2024-03-22T14:06:59;8.77;;;2.17;;
52512;SDS011;38422;53.172;6.974;2024-03-22T14:09:29;8.25;;;2.05;;
52512;SDS011;38422;53.172;6.974;2024-03-22T14:11:58;10.50;;;2.42;;
52512;SDS011;38422;53.172;6.974;2024-03-22T14:14:24;10.70;;;2.28;;
52512;SDS011;38422;53.172;6.974;2024-03-22T14:16:51;7.57;;;2.00;;
52512;SDS011;38422;53.172;6.974;2024-03-22T14:19:17;6.90;;;1.90;;
52512;SDS011;38422;53.172;6.974;2024-03-22T14:21:44;11.68;;;2.50;;
52512;SDS011;38422;53.172;6.974;2024-03-22T14:24:11;7.35;;;2.25;;
52512;SDS011;38422;53.172;6.974;2024-03-22T14:26:37;8.07;;;2.00;;
52512;SDS011;38422;53.172;6.974;2024-03-22T14:29:10;7.00;;;1.90;;
52512;SDS011;38422;53.172;6.974;2024-03-22T14:31:36;7.50;;;2.05;;
52512;SDS011;38422;53.172;6.974;2024-03-22T14:34:03;7.50;;;1.60;;